CYFBCYIO

Guest
Details From CYFB - Iqaluit
To CYIO - Pond Inlet
Flight Number -
Tags Generated
Created
Modified
Stats Distance 573 nm / 1,062 km
Max Altitude 0 ft / 0 m
Waypoints 2
Social Downloads 2
Likes 0
Share VATSIM

Download

Looking for another format? Having issues loading an existing format? Contact us
Advertisement - Login to hide

Notes

Generated

Route

CYFB CYIO

ID Type Via Altitude Latitude Longitude Leg Dist Tot Dist Heading (true) Name
O CYFB APT - 0 ft / 0 m 63.76497˚ -68.57398˚ - 0 nm - -
O CYIO APT - 0 ft / 0 m 72.67831˚ -77.97383˚ 573 nm 573 nm 343° / 334° POND INLET

Altitude Profile

Advertisement - Login to hide

Weather


0- 5 10 15 20 25 30 35+ Temperature / ° C

Clouds and Precipitation
Forecast for 2018-05-23 06:00 UTC. Updated 3 hours ago

Ground ~20,000 ft ~40,000 ft Winds

CYFB

Details ICAO CYFB (YFB)
Name Iqaluit
Region Canada
Timezone America/Iqaluit (UTC-4.0)
Stats Elevation 110 ft / 34 m (AMSL)
Location 63.756565° -68.556058°
Runways 1
Magnetic Variation 27.373° W

METAR

CYFB 230800Z 31008KT 20SM SCT010 BKN016 OVC023 M05/M07 A2979 RMK SC3SC3SC2 SLP093

Decode

TAF

TAF TAF CYFB 230546Z 2306/2406 32015KT P6SM FEW015 BKN030 TEMPO 2306/2406 P6SM -SN BKN015 OVC030 BECMG 2310/2312 33020KT RMK NXT FCST BY 231200Z

Decode

Departure Runways

ID Width Length Bearing (true) Bearing (mag) Surface Threshold Offset Overrun Length
17 200 ft / 61 m 8,605 ft / 2,623 m 135.58° 162.95° Asphalt 0 ft / 0 m 210 ft / 64 m
35 200 ft / 61 m 8,605 ft / 2,623 m 315.62° 342.99° Asphalt 0 ft / 0 m 243 ft / 74 m

CYIO

Details ICAO CYIO (YIO)
Name POND INLET
Region Canada
Timezone America/Iqaluit (UTC-4.0)
Stats Elevation 181 ft / 55 m (AMSL)
Location 72.683334° -77.966664°
Runways 1
Magnetic Variation 36.438° W

METAR

CYIO 230800Z AUTO 15008KT 9SM CLR M09/M12 A2979 RMK SLP097

Decode

TAF

TAF CYIO 230638Z 2307/2319 15008KT P6SM FEW020 TEMPO 2311/2315 3SM BR RMK FCST BASED ON AUTO OBS. NXT FCST BY 231300Z

Decode

Destination Runways

ID Width Length Bearing (true) Bearing (mag) Surface Threshold Offset Overrun Length
02T 100 ft / 30 m 3,986 ft / 1,215 m 22.99° 59.43° Gravel 0 ft / 0 m 0 ft / 0 m
20T 100 ft / 30 m 3,986 ft / 1,215 m 203.00° 239.44° Gravel 0 ft / 0 m 0 ft / 0 m